Time;durP1;ratioP1;P1;durP2;ratioP2;P2;SDS_P1;SDS_P2;PMS_P1;PMS_P2;Temp;Humidity;BMP_temperature;BMP_pressure;BME280_temperature;BME280_humidity;BME280_pressure;Samples;Min_cycle;Max_cycle;Signal;HPM_P1;HPM_P2
2022/01/25 00:08:53;;;;;;;178.63;18.02;;;;;;;-2.73;100.00;96941.19;4974908;28;20034;-75
2022/01/25 00:28:19;;;;;;;79.90;14.55;;;;;;;-2.28;100.00;96937.59;4948032;28;20098;-74
2022/01/25 00:31:00;;;;;;;71.10;15.18;;;;;;;-2.53;100.00;96935.81;4980053;28;20057;-75
2022/01/25 00:33:27;;;;;;;52.10;14.73;;;;;;;-2.17;100.00;96930.53;4993873;28;20046;-74
2022/01/25 00:35:53;;;;;;;49.00;14.88;;;;;;;-2.24;100.00;96932.94;4995422;28;20040;-75
2022/01/25 00:38:18;;;;;;;65.93;15.45;;;;;;;-2.14;100.00;96932.81;4993961;28;20133;-74
2022/01/25 00:40:44;;;;;;;75.38;14.63;;;;;;;-2.13;100.00;96931.84;4994309;28;20109;-75
2022/01/25 00:43:09;;;;;;;79.75;14.95;;;;;;;-2.29;100.00;96928.22;4997857;28;20042;-74
2022/01/25 00:45:35;;;;;;;84.90;15.27;;;;;;;-2.30;100.00;96930.94;5004019;28;20113;-74
2022/01/25 00:48:04;;;;;;;58.60;14.32;;;;;;;-2.37;100.00;96930.78;4989345;28;20050;-74
2022/01/25 00:50:37;;;;;;;86.63;15.38;;;;;;;-2.25;100.00;96923.59;4997440;28;20126;-74
2022/01/25 00:55:33;;;;;;;68.95;14.80;;;;;;;-2.50;100.00;96920.03;4989769;28;20077;-75
2022/01/25 00:58:00;;;;;;;59.13;13.88;;;;;;;-2.38;100.00;96918.84;4991336;28;20251;-74
2022/01/25 01:00:26;;;;;;;65.20;13.80;;;;;;;-2.28;100.00;96914.38;4997423;28;20038;-75
2022/01/25 01:02:53;;;;;;;77.57;14.55;;;;;;;-2.40;100.00;96915.59;4989220;28;20046;-74
2022/01/25 01:05:18;;;;;;;38.33;12.98;;;;;;;-2.22;100.00;96912.16;4988611;28;20050;-75
2022/01/25 01:07:44;;;;;;;107.68;15.07;;;;;;;-2.56;100.00;96916.31;4988926;28;20582;-75
2022/01/25 01:10:14;;;;;;;103.68;14.05;;;;;;;-2.56;100.00;96918.09;4995600;28;20468;-74
2022/01/25 01:15:54;;;;;;;57.13;14.55;;;;;;;-2.49;100.00;96916.50;4995512;28;20053;-74
2022/01/25 01:34:51;;;;;;;69.70;14.68;;;;;;;-2.65;100.00;96923.19;4988080;28;20053;-74
2022/01/25 01:37:40;;;;;;;89.07;14.30;;;;;;;-2.47;100.00;96924.88;4989010;28;20046;-74
2022/01/25 01:42:57;;;;;;;89.28;15.27;;;;;;;-2.52;100.00;96934.88;4987482;28;20049;-74
2022/01/25 01:45:36;;;;;;;101.75;13.57;;;;;;;-2.22;100.00;96931.00;4988245;28;20066;-74
2022/01/25 01:48:06;;;;;;;89.57;13.23;;;;;;;-2.13;100.00;96927.50;4987853;28;20034;-73
2022/01/25 01:50:34;;;;;;;72.07;13.45;;;;;;;-2.17;100.00;96931.38;4987651;28;20038;-76
2022/01/25 01:53:02;;;;;;;76.63;12.25;;;;;;;-2.57;100.00;96930.16;4988041;28;20043;-76
2022/01/25 01:55:27;;;;;;;52.50;12.85;;;;;;;-2.20;100.00;96936.00;4989094;28;20043;-75
2022/01/25 01:57:55;;;;;;;35.20;11.40;;;;;;;-2.22;100.00;96932.78;4989344;28;20046;-76
2022/01/25 02:00:25;;;;;;;99.90;13.05;;;;;;;-2.20;100.00;96936.00;5004390;28;20046;-76
2022/01/25 02:02:51;;;;;;;61.90;12.35;;;;;;;-2.21;100.00;96934.38;4990467;28;20038;-75
2022/01/25 02:05:17;;;;;;;57.25;12.77;;;;;;;-2.21;100.00;96926.66;4990526;28;20049;-75
2022/01/25 02:07:42;;;;;;;77.22;12.63;;;;;;;-2.20;100.00;96930.84;4991030;28;20038;-75
2022/01/25 02:10:08;;;;;;;77.00;11.73;;;;;;;-2.24;100.00;96919.22;4990618;28;20101;-74
2022/01/25 02:12:34;;;;;;;78.50;13.25;;;;;;;-2.44;100.00;96920.25;4991472;28;20043;-75
2022/01/25 02:15:04;;;;;;;72.55;12.75;;;;;;;-2.41;100.00;96924.31;4991528;28;20429;-74
2022/01/25 02:23:18;;;;;;;77.07;13.75;;;;;;;-2.24;100.00;96914.88;4996750;28;20050;-74
2022/01/25 02:25:45;;;;;;;70.72;13.13;;;;;;;-2.18;100.00;96913.47;5003583;28;20047;-74
2022/01/25 02:28:11;;;;;;;60.72;13.57;;;;;;;-2.20;100.00;96911.00;4998898;28;20042;-74
2022/01/25 02:30:37;;;;;;;47.80;13.10;;;;;;;-2.12;100.00;96907.69;5000728;28;20042;-74
2022/01/25 02:33:03;;;;;;;61.78;13.98;;;;;;;-2.12;100.00;96907.69;4991166;28;20453;-74
2022/01/25 02:35:29;;;;;;;66.43;14.60;;;;;;;-2.09;100.00;96909.94;4989351;28;20046;-75
2022/01/25 02:37:54;;;;;;;70.10;15.15;;;;;;;-2.04;100.00;96909.47;4991013;28;20050;-75
2022/01/25 02:40:20;;;;;;;117.85;14.55;;;;;;;-2.06;100.00;96907.06;4984758;28;20501;-75
2022/01/25 02:42:45;;;;;;;67.07;14.40;;;;;;;-2.07;100.00;96905.44;4989655;28;20145;-75
2022/01/25 02:45:15;;;;;;;81.93;15.23;;;;;;;-2.01;100.00;96904.84;4991312;28;20049;-76
2022/01/25 02:50:25;;;;;;;51.35;12.18;;;;;;;-2.14;100.00;96904.44;4991057;28;20105;-75
2022/01/25 02:52:51;;;;;;;49.40;13.20;;;;;;;-2.15;100.00;96897.69;4989382;28;20054;-75
2022/01/25 02:55:18;;;;;;;76.25;12.10;;;;;;;-2.21;100.00;96898.28;4990858;28;20042;-74
2022/01/25 02:57:45;;;;;;;76.82;12.95;;;;;;;-2.29;100.00;96894.69;4990440;28;20582;-74
2022/01/25 03:00:12;;;;;;;68.90;12.77;;;;;;;-2.34;100.00;96896.94;5003962;28;20046;-74
2022/01/25 03:02:38;;;;;;;70.60;13.13;;;;;;;-2.32;100.00;96889.84;4990906;28;20420;-74
2022/01/25 03:05:05;;;;;;;88.13;13.55;;;;;;;-2.36;100.00;96898.84;4990693;28;20501;-75
2022/01/25 03:07:31;;;;;;;59.13;12.80;;;;;;;-2.45;100.00;96902.38;4990520;28;20050;-74
2022/01/25 03:09:58;;;;;;;53.25;11.65;;;;;;;-2.35;100.00;96897.91;4990674;28;20043;-75
2022/01/25 03:12:35;;;;;;;72.10;11.13;;;;;;;-2.34;100.00;96911.59;4989243;28;20412;-75
2022/01/25 03:17:46;;;;;;;47.85;12.13;;;;;;;-2.40;100.00;96894.97;4990323;28;20046;-75
2022/01/25 03:20:19;;;;;;;56.03;11.82;;;;;;;-2.40;100.00;96899.31;5006226;28;20043;-75
2022/01/25 03:23:17;;;;;;;51.05;12.02;;;;;;;-2.42;100.00;96896.91;4990753;28;20049;-75
2022/01/25 03:25:31;;;;;;;49.20;12.57;;;;;;;-2.51;100.00;96897.81;4982898;28;20428;-75
2022/01/25 03:27:57;;;;;;;51.75;11.75;;;;;;;-2.44;100.00;96899.63;4990321;28;20049;-75
2022/01/25 03:30:24;;;;;;;57.30;12.27;;;;;;;-2.52;100.00;96896.19;5005578;28;20062;-75
2022/01/25 03:32:50;;;;;;;42.30;10.35;;;;;;;-2.46;100.00;96905.91;4990651;28;20049;-75
2022/01/25 03:35:15;;;;;;;50.47;10.90;;;;;;;-2.40;100.00;96902.69;4985739;28;20046;-75
2022/01/25 03:37:41;;;;;;;46.40;12.80;;;;;;;-2.50;100.00;96904.56;5005987;28;20050;-75
2022/01/25 03:40:08;;;;;;;41.72;11.38;;;;;;;-2.48;100.00;96897.50;4990479;28;20496;-75
2022/01/25 03:42:36;;;;;;;39.72;11.32;;;;;;;-2.45;100.00;96907.53;4990202;28;20046;-75
2022/01/25 03:45:04;;;;;;;42.45;10.35;;;;;;;-2.46;100.00;96901.56;4990020;28;20039;-76
2022/01/25 03:47:43;;;;;;;41.53;10.10;;;;;;;-2.50;100.00;96904.56;4982528;28;20114;-75
2022/01/25 03:50:09;;;;;;;31.48;8.88;;;;;;;-2.53;100.00;96899.72;4983549;28;20497;-76
2022/01/25 03:52:36;;;;;;;29.30;8.80;;;;;;;-2.53;100.00;96897.16;4990477;28;20057;-75
2022/01/25 03:55:03;;;;;;;36.40;9.85;;;;;;;-2.56;100.00;96894.88;4984704;28;20062;-75
2022/01/25 03:57:29;;;;;;;35.85;10.75;;;;;;;-2.52;100.00;96898.78;4988015;28;20050;-75
2022/01/25 03:59:58;;;;;;;38.50;10.18;;;;;;;-2.51;100.00;96897.81;4990270;28;20104;-75
2022/01/25 04:02:25;;;;;;;37.35;10.88;;;;;;;-2.49;100.00;96893.31;4989546;28;20046;-75
2022/01/25 04:04:51;;;;;;;40.35;11.27;;;;;;;-2.51;100.00;96887.50;4988912;28;20038;-75
2022/01/25 04:07:26;;;;;;;47.15;11.27;;;;;;;-2.51;100.00;96892.66;4990560;28;20496;-76
2022/01/25 04:09:51;;;;;;;59.40;9.32;;;;;;;-2.48;100.00;96897.50;4989238;28;20093;-75
2022/01/25 04:12:17;;;;;;;42.20;11.07;;;;;;;-2.48;100.00;96892.34;4989745;28;20046;-76
2022/01/25 04:14:42;;;;;;;39.60;11.63;;;;;;;-2.51;100.00;96893.47;5004233;28;20038;-76
2022/01/25 04:17:12;;;;;;;48.30;12.07;;;;;;;-2.50;100.00;96889.09;5004586;28;20045;-75
2022/01/25 04:19:43;;;;;;;52.67;11.55;;;;;;;-2.49;100.00;96890.72;5002865;28;20038;-75
2022/01/25 04:27:52;;;;;;;50.20;10.45;;;;;;;-2.50;100.00;96882.19;5010149;28;20045;-76
2022/01/25 04:30:18;;;;;;;36.95;9.73;;;;;;;-2.52;100.00;96885.88;5018141;28;20046;-75
2022/01/25 04:32:50;;;;;;;41.67;10.63;;;;;;;-2.56;100.00;96879.41;5005024;28;20444;-76
2022/01/25 04:35:29;;;;;;;47.08;10.18;;;;;;;-2.52;100.00;96880.72;4987935;28;20046;-75
2022/01/25 04:49:12;;;;;;;34.05;8.57;;;;;;;-2.72;100.00;96865.47;4995476;28;20045;-76
2022/01/25 04:59:28;;;;;;;38.35;8.93;;;;;;;-2.80;100.00;96857.72;4988497;28;20042;-77
2022/01/25 05:02:00;;;;;;;35.35;9.82;;;;;;;-2.78;100.00;96850.63;4978983;28;20100;-77
2022/01/25 05:04:31;;;;;;;30.05;9.57;;;;;;;-2.77;100.00;96847.09;4988764;28;20042;-77
2022/01/25 05:07:05;;;;;;;39.63;7.82;;;;;;;-2.80;100.00;96862.88;4988097;28;20054;-77
2022/01/25 05:09:33;;;;;;;35.50;8.50;;;;;;;-2.82;100.00;96859.63;4993991;28;20057;-77
2022/01/25 05:11:59;;;;;;;31.42;9.07;;;;;;;-2.85;100.00;96854.78;4994375;28;20043;-77
2022/01/25 05:14:31;;;;;;;27.45;8.50;;;;;;;-2.83;100.00;96852.84;4989827;28;20416;-77
2022/01/25 05:17:03;;;;;;;38.60;9.43;;;;;;;-2.82;100.00;96854.47;4988513;28;20039;-77
2022/01/25 05:22:05;;;;;;;34.42;9.48;;;;;;;-2.85;100.00;96859.91;4989749;28;20528;-77
2022/01/25 05:24:36;;;;;;;26.47;8.63;;;;;;;-2.86;100.00;96856.53;4989908;28;20713;-77
2022/01/25 05:27:03;;;;;;;31.85;8.38;;;;;;;-2.84;100.00;96858.97;4988684;28;20042;-76
2022/01/25 05:29:28;;;;;;;40.25;9.85;;;;;;;-2.87;100.00;96859.28;4988591;28;20042;-77
2022/01/25 05:31:54;;;;;;;34.03;9.30;;;;;;;-2.82;100.00;96864.75;4992894;28;20114;-77
2022/01/25 05:34:20;;;;;;;39.45;8.88;;;;;;;-2.81;100.00;96861.25;4992287;28;20054;-77
2022/01/25 05:36:45;;;;;;;31.05;9.18;;;;;;;-2.77;100.00;96865.13;4991534;28;20035;-77
2022/01/25 05:39:15;;;;;;;37.22;9.02;;;;;;;-2.83;100.00;96870.88;4993855;28;20046;-78
2022/01/25 05:41:42;;;;;;;30.40;9.95;;;;;;;-2.94;100.00;96871.13;4982143;28;20046;-78
2022/01/25 05:46:52;;;;;;;34.75;9.90;;;;;;;-2.76;100.00;96861.56;4994956;28;20085;-79
2022/01/25 05:49:18;;;;;;;31.02;9.07;;;;;;;-2.68;100.00;96866.78;4994750;28;20042;-78
2022/01/25 05:51:44;;;;;;;33.88;8.70;;;;;;;-2.72;100.00;96865.47;4997463;28;20046;-79
2022/01/25 05:54:10;;;;;;;34.67;8.93;;;;;;;-2.79;100.00;96867.03;4999012;28;20586;-79
2022/01/25 05:56:36;;;;;;;28.25;9.30;;;;;;;-2.94;100.00;96860.81;4989047;28;20046;-79
2022/01/25 05:59:02;;;;;;;34.63;9.20;;;;;;;-3.06;100.00;96863.66;4993268;28;20447;-80
2022/01/25 06:01:27;;;;;;;31.45;9.65;;;;;;;-3.09;100.00;96866.50;4996960;28;20071;-78
2022/01/25 06:03:54;;;;;;;31.70;9.98;;;;;;;-3.10;100.00;96869.22;4997419;28;20038;-78
2022/01/25 06:06:19;;;;;;;37.92;10.52;;;;;;;-3.12;100.00;96864.22;4994088;28;20455;-78
2022/01/25 06:08:45;;;;;;;35.05;10.30;;;;;;;-2.84;100.00;96864.13;4992676;28;20053;-78
2022/01/25 06:11:11;;;;;;;23.20;7.97;;;;;;;-2.82;100.00;96859.63;4986846;28;20125;-78
2022/01/25 06:13:36;;;;;;;37.47;9.35;;;;;;;-2.94;100.00;96860.81;4991511;28;20049;-77
2022/01/25 06:16:02;;;;;;;40.22;9.20;;;;;;;-3.01;100.00;96856.28;4994535;28;20042;-79
2022/01/25 06:18:28;;;;;;;29.80;9.23;;;;;;;-2.80;100.00;96843.06;4994803;28;20117;-78
2022/01/25 06:20:53;;;;;;;33.50;8.15;;;;;;;-2.74;100.00;96846.78;4992799;28;20034;-78
2022/01/25 06:23:18;;;;;;;29.38;9.35;;;;;;;-2.81;100.00;96846.56;5000049;28;20048;-78
2022/01/25 06:25:44;;;;;;;25.70;7.68;;;;;;;-2.77;100.00;96841.94;5000542;28;20184;-78
2022/01/25 06:28:10;;;;;;;34.25;8.90;;;;;;;-2.78;100.00;96846.28;5021877;28;20042;-78
2022/01/25 06:30:35;;;;;;;31.63;9.90;;;;;;;-2.80;100.00;96842.25;4992954;28;20154;-78
2022/01/25 06:33:01;;;;;;;33.05;8.15;;;;;;;-2.80;100.00;96849.97;4990405;28;20045;-78
2022/01/25 06:35:29;;;;;;;34.03;9.23;;;;;;;-2.81;100.00;96850.94;4999309;28;20452;-78
2022/01/25 06:37:55;;;;;;;33.00;9.70;;;;;;;-2.78;100.00;96845.47;4989709;28;20781;-77
2022/01/25 06:40:20;;;;;;;31.90;11.25;;;;;;;-2.77;100.00;96847.09;4994145;28;20049;-78
2022/01/25 06:42:46;;;;;;;37.30;10.02;;;;;;;-2.79;100.00;96849.00;4986730;28;20055;-77
2022/01/25 06:45:16;;;;;;;38.92;10.13;;;;;;;-2.87;100.00;96846.41;4994473;28;20041;-78
2022/01/25 06:47:43;;;;;;;30.75;10.82;;;;;;;-2.73;100.00;96847.59;4989369;28;20049;-78
2022/01/25 06:50:10;;;;;;;39.45;10.38;;;;;;;-2.73;100.00;96853.56;4986664;28;20039;-79
2022/01/25 06:52:38;;;;;;;39.40;11.68;;;;;;;-2.79;100.00;96854.16;4990171;28;20055;-78
2022/01/25 06:55:07;;;;;;;42.53;11.48;;;;;;;-2.74;100.00;96857.09;4995212;28;20424;-78
2022/01/25 06:57:32;;;;;;;34.95;9.88;;;;;;;-2.76;100.00;96859.00;4989982;28;20121;-78
2022/01/25 06:59:58;;;;;;;42.42;10.80;;;;;;;-2.80;100.00;96862.88;5005157;28;20061;-78
2022/01/25 07:02:23;;;;;;;37.65;11.55;;;;;;;-2.84;100.00;96871.84;5001912;28;20077;-78
2022/01/25 07:04:49;;;;;;;37.30;10.88;;;;;;;-2.82;100.00;96875.06;4994795;28;20077;-77
2022/01/25 07:07:14;;;;;;;41.05;10.95;;;;;;;-2.85;100.00;96880.53;5000121;28;20051;-76
2022/01/25 07:09:40;;;;;;;38.72;11.48;;;;;;;-2.74;100.00;96875.13;4992820;28;20046;-78
2022/01/25 07:12:06;;;;;;;32.47;10.20;;;;;;;-2.56;100.00;96869.09;4996386;28;20042;-80
2022/01/25 07:14:31;;;;;;;37.45;11.65;;;;;;;-2.56;100.00;96879.41;4992197;28;20042;-77
2022/01/25 07:16:57;;;;;;;26.10;8.60;;;;;;;-2.57;100.00;96888.09;4990351;28;20042;-75
2022/01/25 07:19:24;;;;;;;29.20;9.18;;;;;;;-2.61;100.00;96888.41;4990474;28;20046;-79
2022/01/25 07:21:49;;;;;;;35.25;10.52;;;;;;;-2.63;100.00;96890.34;4980628;28;20041;-78
2022/01/25 07:24:15;;;;;;;33.55;11.52;;;;;;;-2.72;100.00;96885.28;4992773;28;20042;-80
2022/01/25 07:26:41;;;;;;;34.88;11.40;;;;;;;-2.61;100.00;96888.41;4990419;28;20500;-78
2022/01/25 07:29:06;;;;;;;39.38;12.35;;;;;;;-2.56;100.00;96894.88;4991566;28;20499;-80
2022/01/25 07:31:32;;;;;;;27.88;9.77;;;;;;;-2.64;100.00;96888.72;4989045;28;20046;-80
2022/01/25 07:33:57;;;;;;;38.35;11.45;;;;;;;-2.67;100.00;96885.63;4990783;28;20039;-77
2022/01/25 07:36:23;;;;;;;35.40;11.35;;;;;;;-2.67;100.00;96880.47;4988512;28;20046;-80
2022/01/25 07:38:49;;;;;;;36.35;11.77;;;;;;;-2.83;100.00;96873.44;4988983;28;20046;-78
2022/01/25 07:41:14;;;;;;;40.83;12.27;;;;;;;-2.76;100.00;96879.63;4995774;28;20050;-79
2022/01/25 07:43:40;;;;;;;45.90;12.13;;;;;;;-2.87;100.00;96883.25;4993699;28;20049;-79
2022/01/25 07:46:06;;;;;;;42.40;11.90;;;;;;;-2.87;100.00;96882.47;4994589;28;20039;-79
2022/01/25 07:48:32;;;;;;;48.00;12.07;;;;;;;-2.98;100.00;96881.72;4995537;28;20125;-79
2022/01/25 07:50:58;;;;;;;42.30;12.68;;;;;;;-2.93;100.00;96883.03;4994427;28;20038;-79
2022/01/25 07:53:24;;;;;;;40.08;12.27;;;;;;;-2.67;100.00;96886.44;4998759;28;20171;-79
2022/01/25 07:55:49;;;;;;;40.55;12.90;;;;;;;-2.59;100.00;96882.31;4976835;28;20043;-79
2022/01/25 07:58:15;;;;;;;40.92;12.90;;;;;;;-2.68;100.00;96886.59;4994740;28;20049;-79
2022/01/25 08:00:41;;;;;;;45.70;13.43;;;;;;;-2.66;100.00;96890.66;4984045;28;20038;-79
2022/01/25 08:03:07;;;;;;;49.15;15.02;;;;;;;-2.70;100.00;96891.91;4988009;28;20046;-80
2022/01/25 08:05:32;;;;;;;44.10;13.60;;;;;;;-2.40;100.00;96889.00;5010861;28;20042;-79
2022/01/25 08:08:00;;;;;;;40.35;13.27;;;;;;;-2.31;100.00;96893.25;4992499;28;20046;-79
2022/01/25 08:10:26;;;;;;;43.70;13.70;;;;;;;-2.35;100.00;96892.75;5009464;28;20046;-80
2022/01/25 08:12:52;;;;;;;43.63;12.60;;;;;;;-2.42;100.00;96886.59;4995031;28;20046;-79
2022/01/25 08:15:17;;;;;;;50.70;14.73;;;;;;;-2.46;100.00;96885.28;4995035;28;20038;-80
2022/01/25 08:17:43;;;;;;;44.83;14.70;;;;;;;-2.42;100.00;96896.91;4990909;28;20042;-80
2022/01/25 08:20:09;;;;;;;52.85;14.32;;;;;;;-2.33;100.00;96895.16;4991526;28;20042;-79
2022/01/25 08:22:35;;;;;;;38.55;12.85;;;;;;;-2.31;100.00;96899.22;4990263;28;20539;-80
2022/01/25 08:25:02;;;;;;;42.60;13.88;;;;;;;-2.22;100.00;96901.84;4990650;28;20046;-79
2022/01/25 08:27:28;;;;;;;43.70;13.57;;;;;;;-2.11;100.00;96904.16;4989026;28;20550;-80
2022/01/25 08:29:54;;;;;;;44.15;13.82;;;;;;;-2.12;100.00;96902.53;4991492;28;20091;-79
2022/01/25 08:32:20;;;;;;;42.13;14.40;;;;;;;-2.33;100.00;96896.00;4991855;28;20453;-79
2022/01/25 08:34:47;;;;;;;40.97;13.95;;;;;;;-2.16;100.00;96906.38;4992988;28;20045;-80
2022/01/25 08:37:13;;;;;;;49.80;15.25;;;;;;;-2.08;100.00;96898.69;4989437;28;20098;-78
2022/01/25 08:39:39;;;;;;;47.88;14.63;;;;;;;-2.07;100.00;96895.13;5001499;28;20058;-79
2022/01/25 08:42:05;;;;;;;39.80;13.88;;;;;;;-1.90;100.00;96884.88;4991511;28;20066;-79
2022/01/25 08:44:31;;;;;;;46.15;16.02;;;;;;;-1.96;100.00;96886.31;4990844;28;20047;-78
2022/01/25 08:46:57;;;;;;;49.03;16.27;;;;;;;-1.96;100.00;96881.13;4989105;28;20551;-78
2022/01/25 08:49:22;;;;;;;41.97;14.52;;;;;;;-2.02;100.00;96892.88;4988810;28;20041;-78
2022/01/25 08:51:49;;;;;;;50.00;16.13;;;;;;;-2.07;100.00;96895.13;4990213;28;20157;-77
2022/01/25 08:54:17;;;;;;;38.78;14.07;;;;;;;-2.15;100.00;96892.53;4990713;28;20117;-78
2022/01/25 08:56:43;;;;;;;44.78;14.88;;;;;;;-2.12;100.00;96892.22;4990430;28;20052;-78
2022/01/25 08:59:11;;;;;;;33.15;12.07;;;;;;;-1.88;100.00;96888.09;4992789;28;20074;-78
2022/01/25 09:01:37;;;;;;;40.67;13.95;;;;;;;-1.88;100.00;96877.75;4989570;28;20487;-77
2022/01/25 09:04:03;;;;;;;43.22;13.45;;;;;;;-1.62;100.00;96883.66;4993627;28;20066;-75
2022/01/25 09:06:29;;;;;;;46.55;15.32;;;;;;;-1.71;100.00;96892.34;4997661;28;20038;-75
2022/01/25 09:09:01;;;;;;;40.35;14.52;;;;;;;-1.75;100.00;96896.22;4991313;28;20046;-78
2022/01/25 09:11:27;;;;;;;41.75;14.30;;;;;;;-1.58;100.00;96895.28;4992617;28;20050;-76
2022/01/25 09:13:53;;;;;;;42.55;13.65;;;;;;;-1.58;100.00;96889.28;4992374;28;20038;-77
2022/01/25 09:16:18;;;;;;;39.33;14.00;;;;;;;-1.68;100.00;96886.88;4992320;28;20085;-76
2022/01/25 09:18:44;;;;;;;41.10;13.52;;;;;;;-1.78;100.00;96899.09;4992962;28;20046;-77
2022/01/25 09:21:10;;;;;;;36.58;12.35;;;;;;;-1.66;100.00;96891.88;4993568;28;20050;-79
2022/01/25 09:23:36;;;;;;;45.83;13.77;;;;;;;-1.70;100.00;96888.78;4993646;28;20100;-76
2022/01/25 09:26:03;;;;;;;47.25;15.18;;;;;;;-1.68;100.00;96889.44;4991375;28;20688;-76
2022/01/25 09:28:29;;;;;;;44.75;15.93;;;;;;;-1.54;100.00;96884.63;5002167;28;20038;-75
2022/01/25 09:30:55;;;;;;;36.47;14.02;;;;;;;-1.42;100.00;96891.13;4992385;28;20050;-75
2022/01/25 09:33:22;;;;;;;40.78;15.00;;;;;;;-1.29;100.00;96886.28;4993168;28;20109;-75
2022/01/25 09:35:50;;;;;;;41.80;14.55;;;;;;;-1.25;100.00;96887.56;4991634;28;20038;-75
2022/01/25 09:38:16;;;;;;;39.47;14.05;;;;;;;-0.93;100.00;96898.88;4992112;28;20051;-75
2022/01/25 09:40:42;;;;;;;38.05;13.10;;;;;;;-0.87;100.00;96887.88;4989865;28;20038;-75
2022/01/25 09:43:08;;;;;;;37.70;13.20;;;;;;;-0.72;100.00;96900.16;5007818;28;20049;-75
2022/01/25 09:45:35;;;;;;;42.47;14.10;;;;;;;-0.59;100.00;96895.28;4993905;28;20046;-75
2022/01/25 09:48:02;;;;;;;44.25;15.05;;;;;;;-0.65;100.00;96895.94;4992349;28;20058;-75
2022/01/25 09:50:28;;;;;;;35.08;13.30;;;;;;;-0.64;100.00;96902.72;4992560;28;20072;-75
2022/01/25 09:52:54;;;;;;;35.47;12.90;;;;;;;-0.62;100.00;96895.59;5006322;28;20042;-75
2022/01/25 09:55:28;;;;;;;36.80;13.13;;;;;;;-0.49;100.00;96896.88;4991704;28;20048;-75
2022/01/25 09:57:54;;;;;;;34.63;12.68;;;;;;;0.61;97.33;96898.69;4992729;28;20053;-75
2022/01/25 10:00:22;;;;;;;32.72;12.40;;;;;;;1.93;92.20;96894.94;4992204;28;20042;-74
2022/01/25 10:02:59;;;;;;;32.40;12.30;;;;;;;1.96;88.55;96894.56;4997333;28;20045;-74
2022/01/25 10:05:31;;;;;;;33.30;11.38;;;;;;;2.06;88.04;96901.09;4991358;28;20057;-74
2022/01/25 10:08:01;;;;;;;26.77;10.55;;;;;;;2.50;88.31;96886.41;4991317;28;20042;-74
2022/01/25 10:10:28;;;;;;;28.17;11.35;;;;;;;3.03;83.31;96885.28;4992008;28;20097;-74
2022/01/25 10:13:20;;;;;;;30.27;11.60;;;;;;;3.15;82.07;96877.78;4991844;28;20038;-74
2022/01/25 10:15:50;;;;;;;30.95;11.85;;;;;;;3.33;82.95;96874.72;4990041;28;20049;-74
2022/01/25 10:18:17;;;;;;;25.38;10.25;;;;;;;3.67;81.45;96876.56;4987751;28;20124;-74
2022/01/25 10:20:51;;;;;;;27.13;11.23;;;;;;;4.31;77.77;96872.84;4992254;28;20109;-74
2022/01/25 10:23:19;;;;;;;30.58;12.27;;;;;;;4.05;80.38;96872.72;4991337;28;20500;-74
2022/01/25 10:25:48;;;;;;;21.98;10.40;;;;;;;5.16;76.26;96868.97;4991739;28;20555;-74
2022/01/25 10:28:14;;;;;;;25.67;10.98;;;;;;;5.93;70.08;96864.00;4996655;28;20043;-74
2022/01/25 10:30:46;;;;;;;23.42;10.45;;;;;;;5.20;70.62;96859.72;4987406;28;20043;-74
2022/01/25 10:33:28;;;;;;;27.23;9.85;;;;;;;6.14;70.24;96864.78;4987039;28;20120;-74
2022/01/25 10:35:57;;;;;;;22.55;9.45;;;;;;;6.75;67.83;96853.78;4999907;28;20495;-74
2022/01/25 10:38:29;;;;;;;23.70;9.65;;;;;;;5.83;71.35;96854.00;4991334;28;20129;-74
2022/01/25 10:41:00;;;;;;;19.70;9.48;;;;;;;5.46;70.94;96847.63;4993786;28;20049;-75
2022/01/25 10:43:28;;;;;;;22.67;9.93;;;;;;;6.24;69.35;96844.22;5002415;28;20049;-75
2022/01/25 10:46:19;;;;;;;22.42;9.18;;;;;;;7.39;66.11;96845.84;4991189;28;20042;-74
2022/01/25 10:48:49;;;;;;;22.17;9.60;;;;;;;7.05;66.16;96840.09;4990701;28;20810;-74
2022/01/25 10:51:27;;;;;;;20.73;9.25;;;;;;;7.59;63.56;96840.41;4992864;28;20152;-74
2022/01/25 10:53:57;;;;;;;20.30;9.50;;;;;;;6.43;70.24;96836.50;4990821;28;20042;-74
2022/01/25 10:56:23;;;;;;;18.55;9.15;;;;;;;5.87;70.31;96839.50;4994116;28;20563;-74
2022/01/25 10:58:49;;;;;;;21.98;9.07;;;;;;;7.08;67.04;96829.19;4999369;28;20050;-74
2022/01/25 11:01:29;;;;;;;17.85;9.05;;;;;;;8.54;61.88;96824.38;4996577;28;20141;-74
2022/01/25 11:04:06;;;;;;;16.52;7.80;;;;;;;7.80;63.84;96818.22;4981751;28;20129;-73
2022/01/25 11:06:32;;;;;;;19.10;9.18;;;;;;;8.57;60.74;96823.94;4982623;28;20054;-74
2022/01/25 11:09:01;;;;;;;17.00;8.45;;;;;;;9.25;59.58;96819.25;4990513;28;20559;-76
2022/01/25 11:11:34;;;;;;;19.58;8.57;;;;;;;9.81;59.20;96817.84;4988409;28;20475;-76
2022/01/25 11:14:50;;;;;;;17.30;8.40;;;;;;;10.65;56.14;96813.09;4994946;28;20045;-74
2022/01/25 11:16:48;;;;;;;18.40;8.38;;;;;;;10.57;56.75;96809.81;4989328;28;20047;-75
2022/01/25 11:19:14;;;;;;;15.55;7.70;;;;;;;11.74;55.34;96806.53;4988379;28;20054;-75
2022/01/25 11:21:42;;;;;;;15.68;7.20;;;;;;;11.98;51.19;96800.25;4992492;28;20125;-74
2022/01/25 11:24:08;;;;;;;15.32;7.45;;;;;;;11.36;49.77;96794.94;4989601;28;20097;-74
2022/01/25 11:26:34;;;;;;;15.63;7.90;;;;;;;11.35;51.66;96792.56;4990676;28;20047;-74
2022/01/25 11:29:00;;;;;;;16.48;6.60;;;;;;;11.14;53.64;96797.53;4989180;28;20034;-74
2022/01/25 11:31:27;;;;;;;14.27;7.70;;;;;;;11.94;52.46;96784.13;4981422;28;20397;-74
2022/01/25 11:33:54;;;;;;;15.02;6.70;;;;;;;12.86;50.27;96778.94;4990507;28;20033;-74
2022/01/25 11:36:22;;;;;;;14.23;7.00;;;;;;;12.32;48.68;96778.97;4991513;28;20038;-74
2022/01/25 11:38:52;;;;;;;15.82;7.30;;;;;;;12.36;51.80;96780.88;4987220;28;20034;-73
2022/01/25 11:41:23;;;;;;;13.50;6.63;;;;;;;11.64;52.25;96784.50;4993019;28;20069;-72
2022/01/25 11:44:11;;;;;;;11.70;6.90;;;;;;;12.50;48.10;96776.00;4987548;28;20046;-73
2022/01/25 11:46:40;;;;;;;14.23;6.70;;;;;;;14.12;46.93;96777.50;4988957;28;20053;-72
2022/01/25 11:49:19;;;;;;;10.25;5.47;;;;;;;13.85;44.24;96773.19;4988812;28;20039;-72
2022/01/25 11:52:02;;;;;;;12.05;6.38;;;;;;;13.15;49.01;96774.13;5004641;28;20051;-72
2022/01/25 11:54:28;;;;;;;9.93;5.38;;;;;;;13.52;46.01;96769.88;4989936;28;20045;-73
2022/01/25 11:57:08;;;;;;;9.27;5.20;;;;;;;12.89;45.02;96767.88;4986658;28;20035;-72
2022/01/25 11:59:35;;;;;;;10.98;5.60;;;;;;;12.95;50.27;96761.56;5004347;28;20104;-72
2022/01/25 12:02:01;;;;;;;12.15;5.82;;;;;;;13.05;49.47;96765.34;4989494;28;20777;-72
2022/01/25 12:04:29;;;;;;;10.57;5.05;;;;;;;13.12;49.31;96765.91;4989064;28;20050;-71
2022/01/25 12:07:09;;;;;;;9.07;4.97;;;;;;;13.39;45.57;96749.16;4988152;28;20054;-72
2022/01/25 12:09:53;;;;;;;10.00;5.32;;;;;;;13.54;43.82;96751.91;4998515;28;20579;-72
2022/01/25 12:12:18;;;;;;;8.85;4.70;;;;;;;14.84;45.62;96751.13;4989139;28;20045;-72
2022/01/25 12:14:52;;;;;;;6.78;4.20;;;;;;;14.53;45.05;96751.09;4989577;28;20554;-74
2022/01/25 12:17:23;;;;;;;11.40;5.30;;;;;;;14.36;42.61;96754.78;4978248;28;20088;-74
2022/01/25 12:19:58;;;;;;;9.60;5.20;;;;;;;13.29;47.50;96755.97;5000338;28;20047;-73
2022/01/25 12:22:32;;;;;;;10.13;5.18;;;;;;;14.42;43.51;96744.19;4988838;28;20114;-73
2022/01/25 12:27:51;;;;;;;10.88;4.88;;;;;;;14.65;43.68;96727.03;4982940;28;20045;-73
2022/01/25 12:30:39;;;;;;;10.98;4.82;;;;;;;14.65;43.48;96725.19;4998131;28;20054;-73
2022/01/25 12:33:19;;;;;;;6.72;3.80;;;;;;;14.70;40.48;96719.88;4988801;28;20062;-74
2022/01/25 12:35:49;;;;;;;6.63;3.83;;;;;;;14.97;41.24;96724.09;4988065;28;20042;-74
2022/01/25 12:38:34;;;;;;;6.88;3.53;;;;;;;13.33;42.83;96730.63;4992519;28;20058;-74
2022/01/25 12:41:04;;;;;;;7.82;3.80;;;;;;;14.68;42.29;96721.19;4979397;28;20038;-74
2022/01/25 12:43:38;;;;;;;9.02;4.00;;;;;;;14.12;43.51;96714.78;4989132;28;20066;-74
2022/01/25 12:46:33;;;;;;;9.40;5.30;;;;;;;13.14;42.53;96722.28;4986079;28;20034;-74
2022/01/25 12:49:07;;;;;;;9.65;5.18;;;;;;;13.58;43.99;96726.53;4983225;28;20578;-75
2022/01/25 12:51:36;;;;;;;11.07;5.35;;;;;;;13.91;43.00;96719.22;4989087;28;20041;-75
2022/01/25 12:54:06;;;;;;;10.10;5.65;;;;;;;12.17;44.61;96714.44;4988852;28;20530;-74